Rexburg, ID (83441)

4:40 PM MDT on August 27, 2015 (GMT -0600)
Rexburg-Madison County | | Change Station
CLOSE
Current Station
Airport
Location: Rexburg,
Elevation: 4859 ft
Nearby Weather Stations

Elev 4859 ft 43.83 °N, 111.81 °W | Updated 47 minutes ago

Partly Cloudy
Partly Cloudy
81 °F
Feels Like 81 °F
N
4
Wind Variable Wind from Variable

Today
High -- | Low -- °F
--% Chance of Precip.
Yesterday
High -- | Low -- °F
Precip. -- in
6:44 AM 8:10 PM
Waxing Gibbous, 95% visible
Pressure 30.06 in
Visibility 10.0 miles
Clouds Clear
Dew Point 49 °F
Humidity 33%
Rainfall 0.00 in
Snow Depth Not available.
UV 6 out of 12
Pollen 7.90 out of 12
Air Quality Not available.
Flu Activity Not available.
METAR KRXE 272153Z AUTO VRB03KT 10SM CLR 27/09 A3018 RMK AO2 SLP179 T02720094
Pressure 30.06 in
Visibility 10.0 miles
Clouds Clear
Dew Point 49 °F
Humidity 33%
Rainfall 0.00 in
Snow Depth Not available.
UV 6 out of 12
Pollen 7.90 out of 12
Air Quality Not available.
Flu Activity Not available.
METAR KRXE 272153Z AUTO VRB03KT 10SM CLR 27/09 A3018 RMK AO2 SLP179 T02720094

10-Day Weather Forecast

×

Almanac

Astronomy

Aug. 27, 2015 Rise Set
Actual Time
Civil Twilight
Nautical Twilight
Astronomical Twilight
Moon
Length of Visible Light
Length of Day
Tomorrow will be .
, % of the Moon is Illuminated

Today's Extremes

State Highs State Lows

Community

WunderPhotos

Upload Photos

1,850,252 photos uploaded!

WunderBlogs® & News

Nearby

Air Quality

  Air Quality AQ Index Pollutant
Not available.

Snow Depth

Station Depth Elevation

Earthquake Activity

City Distance Mag. Time & Date
Minimum magnitude displayed is 2.5.

Coastal Water Temperatures

Place Temperature

Stations

Nearby Weather Stations

Station Location Temp. Windchill Dew Point Humidity Wind Precip. Elev Updated Type